sensor_id;sensor_type;location;lat;lon;timestamp;temperature;humidity
13754;DHT22;6948;51.216;6.778;2023-04-25T00:02:00;8.00;99.90
13754;DHT22;6948;51.216;6.778;2023-04-25T00:04:27;8.00;99.90
13754;DHT22;6948;51.216;6.778;2023-04-25T00:06:54;8.00;99.90
13754;DHT22;6948;51.216;6.778;2023-04-25T00:09:19;8.10;99.90
13754;DHT22;6948;51.216;6.778;2023-04-25T00:11:45;8.10;99.90
13754;DHT22;6948;51.216;6.778;2023-04-25T00:14:11;8.00;99.90
13754;DHT22;6948;51.216;6.778;2023-04-25T00:16:36;8.00;99.90
13754;DHT22;6948;51.216;6.778;2023-04-25T00:19:02;8.10;99.90
13754;DHT22;6948;51.216;6.778;2023-04-25T00:21:28;8.10;99.90
13754;DHT22;6948;51.216;6.778;2023-04-25T00:23:54;8.10;99.90
13754;DHT22;6948;51.216;6.778;2023-04-25T00:26:20;8.10;99.90
13754;DHT22;6948;51.216;6.778;2023-04-25T00:28:47;8.10;99.90
13754;DHT22;6948;51.216;6.778;2023-04-25T00:31:13;8.10;99.90
13754;DHT22;6948;51.216;6.778;2023-04-25T00:33:39;8.10;99.90
13754;DHT22;6948;51.216;6.778;2023-04-25T00:36:05;8.10;99.90
13754;DHT22;6948;51.216;6.778;2023-04-25T00:38:31;8.10;99.90
13754;DHT22;6948;51.216;6.778;2023-04-25T00:40:57;8.10;99.90
13754;DHT22;6948;51.216;6.778;2023-04-25T00:43:25;8.10;99.90
13754;DHT22;6948;51.216;6.778;2023-04-25T00:45:52;8.10;99.90
13754;DHT22;6948;51.216;6.778;2023-04-25T00:48:18;8.10;99.90
13754;DHT22;6948;51.216;6.778;2023-04-25T00:50:52;8.10;99.90
13754;DHT22;6948;51.216;6.778;2023-04-25T00:53:19;8.10;99.90
13754;DHT22;6948;51.216;6.778;2023-04-25T00:55:45;8.20;99.90
13754;DHT22;6948;51.216;6.778;2023-04-25T00:58:11;8.20;99.90
13754;DHT22;6948;51.216;6.778;2023-04-25T01:00:36;8.20;99.90
13754;DHT22;6948;51.216;6.778;2023-04-25T01:03:03;8.20;99.90
13754;DHT22;6948;51.216;6.778;2023-04-25T01:05:29;8.20;99.90
13754;DHT22;6948;51.216;6.778;2023-04-25T01:07:55;8.20;99.90
13754;DHT22;6948;51.216;6.778;2023-04-25T01:10:21;8.10;99.90
13754;DHT22;6948;51.216;6.778;2023-04-25T01:12:47;8.00;99.90
13754;DHT22;6948;51.216;6.778;2023-04-25T01:15:12;8.00;99.90
13754;DHT22;6948;51.216;6.778;2023-04-25T01:17:38;8.00;99.90
13754;DHT22;6948;51.216;6.778;2023-04-25T01:20:06;7.90;99.90
13754;DHT22;6948;51.216;6.778;2023-04-25T01:22:33;7.90;99.90
13754;DHT22;6948;51.216;6.778;2023-04-25T01:24:59;7.90;99.90
13754;DHT22;6948;51.216;6.778;2023-04-25T01:27:25;7.90;99.90
13754;DHT22;6948;51.216;6.778;2023-04-25T01:29:52;7.90;99.90
13754;DHT22;6948;51.216;6.778;2023-04-25T01:32:19;7.80;99.90
13754;DHT22;6948;51.216;6.778;2023-04-25T01:34:45;7.90;99.90
13754;DHT22;6948;51.216;6.778;2023-04-25T01:37:11;7.80;99.90
13754;DHT22;6948;51.216;6.778;2023-04-25T01:39:37;7.80;99.90
13754;DHT22;6948;51.216;6.778;2023-04-25T01:42:02;7.80;99.90
13754;DHT22;6948;51.216;6.778;2023-04-25T01:44:28;7.90;99.90
13754;DHT22;6948;51.216;6.778;2023-04-25T01:46:54;7.90;99.90
13754;DHT22;6948;51.216;6.778;2023-04-25T01:49:20;7.90;99.90
13754;DHT22;6948;51.216;6.778;2023-04-25T01:51:45;7.80;99.90
13754;DHT22;6948;51.216;6.778;2023-04-25T01:54:11;7.70;99.90
13754;DHT22;6948;51.216;6.778;2023-04-25T01:56:38;7.70;99.90
13754;DHT22;6948;51.216;6.778;2023-04-25T01:59:05;7.70;99.90
13754;DHT22;6948;51.216;6.778;2023-04-25T02:01:31;7.70;99.90
13754;DHT22;6948;51.216;6.778;2023-04-25T02:03:57;7.70;99.90
13754;DHT22;6948;51.216;6.778;2023-04-25T02:06:22;7.70;99.90
13754;DHT22;6948;51.216;6.778;2023-04-25T02:08:48;7.70;99.90
13754;DHT22;6948;51.216;6.778;2023-04-25T02:11:13;7.60;99.90
13754;DHT22;6948;51.216;6.778;2023-04-25T02:13:39;7.60;99.90
13754;DHT22;6948;51.216;6.778;2023-04-25T02:16:05;7.70;99.90
13754;DHT22;6948;51.216;6.778;2023-04-25T02:18:31;7.70;99.90
13754;DHT22;6948;51.216;6.778;2023-04-25T02:20:59;7.60;99.90
13754;DHT22;6948;51.216;6.778;2023-04-25T02:23:25;7.70;99.90
13754;DHT22;6948;51.216;6.778;2023-04-25T02:25:51;7.70;99.90
13754;DHT22;6948;51.216;6.778;2023-04-25T02:28:17;7.70;99.90
13754;DHT22;6948;51.216;6.778;2023-04-25T02:30:42;7.70;99.90
13754;DHT22;6948;51.216;6.778;2023-04-25T02:33:08;7.70;99.90
13754;DHT22;6948;51.216;6.778;2023-04-25T02:35:34;7.70;99.90
13754;DHT22;6948;51.216;6.778;2023-04-25T02:38:00;7.80;99.90
13754;DHT22;6948;51.216;6.778;2023-04-25T02:40:25;7.80;99.90
13754;DHT22;6948;51.216;6.778;2023-04-25T02:42:51;7.80;99.90
13754;DHT22;6948;51.216;6.778;2023-04-25T02:45:17;7.80;99.90
13754;DHT22;6948;51.216;6.778;2023-04-25T02:47:43;7.80;99.90
13754;DHT22;6948;51.216;6.778;2023-04-25T02:50:08;7.90;99.90
13754;DHT22;6948;51.216;6.778;2023-04-25T02:52:34;7.90;99.90
13754;DHT22;6948;51.216;6.778;2023-04-25T02:55:00;7.80;99.90
13754;DHT22;6948;51.216;6.778;2023-04-25T02:57:26;7.80;99.90
13754;DHT22;6948;51.216;6.778;2023-04-25T02:59:52;7.70;99.90
13754;DHT22;6948;51.216;6.778;2023-04-25T03:02:17;7.70;99.90
13754;DHT22;6948;51.216;6.778;2023-04-25T03:04:43;7.70;99.90
13754;DHT22;6948;51.216;6.778;2023-04-25T03:07:08;7.70;99.90
13754;DHT22;6948;51.216;6.778;2023-04-25T03:09:34;7.60;99.90
13754;DHT22;6948;51.216;6.778;2023-04-25T03:12:00;7.60;99.90
13754;DHT22;6948;51.216;6.778;2023-04-25T03:14:26;7.60;99.90
13754;DHT22;6948;51.216;6.778;2023-04-25T03:16:52;7.60;99.90
13754;DHT22;6948;51.216;6.778;2023-04-25T03:19:18;7.60;99.90
13754;DHT22;6948;51.216;6.778;2023-04-25T03:21:44;7.60;99.90
13754;DHT22;6948;51.216;6.778;2023-04-25T03:24:10;7.50;99.90
13754;DHT22;6948;51.216;6.778;2023-04-25T03:26:37;7.60;99.90
13754;DHT22;6948;51.216;6.778;2023-04-25T03:29:02;7.60;99.90
13754;DHT22;6948;51.216;6.778;2023-04-25T03:31:28;7.60;99.90
13754;DHT22;6948;51.216;6.778;2023-04-25T03:33:54;7.50;99.90
13754;DHT22;6948;51.216;6.778;2023-04-25T03:36:19;7.50;99.90
13754;DHT22;6948;51.216;6.778;2023-04-25T03:38:45;7.50;99.90
13754;DHT22;6948;51.216;6.778;2023-04-25T03:41:11;7.50;99.90
13754;DHT22;6948;51.216;6.778;2023-04-25T03:43:37;7.50;99.90
13754;DHT22;6948;51.216;6.778;2023-04-25T03:46:02;7.50;99.90
13754;DHT22;6948;51.216;6.778;2023-04-25T03:48:28;7.40;99.90
13754;DHT22;6948;51.216;6.778;2023-04-25T03:50:54;7.40;99.90
13754;DHT22;6948;51.216;6.778;2023-04-25T03:53:20;7.30;99.90
13754;DHT22;6948;51.216;6.778;2023-04-25T03:55:46;7.30;99.90
13754;DHT22;6948;51.216;6.778;2023-04-25T03:58:11;7.30;99.90
13754;DHT22;6948;51.216;6.778;2023-04-25T04:00:37;7.30;99.90
13754;DHT22;6948;51.216;6.778;2023-04-25T04:03:03;7.20;99.90
13754;DHT22;6948;51.216;6.778;2023-04-25T04:05:29;7.10;99.90
13754;DHT22;6948;51.216;6.778;2023-04-25T04:07:55;7.10;99.90
13754;DHT22;6948;51.216;6.778;2023-04-25T04:10:21;7.10;99.90
13754;DHT22;6948;51.216;6.778;2023-04-25T04:12:47;7.00;99.90
13754;DHT22;6948;51.216;6.778;2023-04-25T04:15:13;7.00;99.90
13754;DHT22;6948;51.216;6.778;2023-04-25T04:17:41;7.10;99.90
13754;DHT22;6948;51.216;6.778;2023-04-25T04:20:07;7.00;99.90
13754;DHT22;6948;51.216;6.778;2023-04-25T04:22:34;7.00;99.90
13754;DHT22;6948;51.216;6.778;2023-04-25T04:25:00;6.90;99.90
13754;DHT22;6948;51.216;6.778;2023-04-25T04:27:25;6.90;99.90
13754;DHT22;6948;51.216;6.778;2023-04-25T04:29:51;6.90;99.90
13754;DHT22;6948;51.216;6.778;2023-04-25T04:32:18;6.90;99.90
13754;DHT22;6948;51.216;6.778;2023-04-25T04:34:44;7.00;99.90
13754;DHT22;6948;51.216;6.778;2023-04-25T04:37:10;6.90;99.90
13754;DHT22;6948;51.216;6.778;2023-04-25T04:39:36;7.00;99.90
13754;DHT22;6948;51.216;6.778;2023-04-25T04:42:02;7.10;99.90
13754;DHT22;6948;51.216;6.778;2023-04-25T04:44:29;7.10;99.90
13754;DHT22;6948;51.216;6.778;2023-04-25T04:46:58;7.10;99.90
13754;DHT22;6948;51.216;6.778;2023-04-25T04:49:24;7.20;99.90
13754;DHT22;6948;51.216;6.778;2023-04-25T04:51:50;7.20;99.90
13754;DHT22;6948;51.216;6.778;2023-04-25T04:54:16;7.30;99.90
13754;DHT22;6948;51.216;6.778;2023-04-25T04:56:41;7.30;99.90
13754;DHT22;6948;51.216;6.778;2023-04-25T04:59:07;7.20;99.90
13754;DHT22;6948;51.216;6.778;2023-04-25T05:01:33;7.10;99.90
13754;DHT22;6948;51.216;6.778;2023-04-25T05:04:01;7.20;99.90
13754;DHT22;6948;51.216;6.778;2023-04-25T05:06:28;7.20;99.90
13754;DHT22;6948;51.216;6.778;2023-04-25T05:08:55;7.30;99.90
13754;DHT22;6948;51.216;6.778;2023-04-25T05:11:21;7.40;99.90
13754;DHT22;6948;51.216;6.778;2023-04-25T05:13:47;7.40;99.90
13754;DHT22;6948;51.216;6.778;2023-04-25T05:16:13;7.40;99.90
13754;DHT22;6948;51.216;6.778;2023-04-25T05:18:39;7.40;99.90
13754;DHT22;6948;51.216;6.778;2023-04-25T05:21:05;7.30;99.90
13754;DHT22;6948;51.216;6.778;2023-04-25T05:23:31;7.30;99.90
13754;DHT22;6948;51.216;6.778;2023-04-25T05:25:57;7.30;99.90
13754;DHT22;6948;51.216;6.778;2023-04-25T05:28:23;7.40;99.90
13754;DHT22;6948;51.216;6.778;2023-04-25T05:30:49;7.30;99.90
13754;DHT22;6948;51.216;6.778;2023-04-25T05:33:15;7.30;99.90
13754;DHT22;6948;51.216;6.778;2023-04-25T05:35:41;7.50;99.90
13754;DHT22;6948;51.216;6.778;2023-04-25T05:38:06;7.50;99.90
13754;DHT22;6948;51.216;6.778;2023-04-25T05:40:32;7.60;99.90
13754;DHT22;6948;51.216;6.778;2023-04-25T05:42:58;7.60;99.90
13754;DHT22;6948;51.216;6.778;2023-04-25T05:45:23;7.50;99.90
13754;DHT22;6948;51.216;6.778;2023-04-25T05:47:49;7.60;99.90
13754;DHT22;6948;51.216;6.778;2023-04-25T05:50:15;7.60;99.90
13754;DHT22;6948;51.216;6.778;2023-04-25T05:52:40;7.50;99.90
13754;DHT22;6948;51.216;6.778;2023-04-25T05:55:06;7.70;99.90
13754;DHT22;6948;51.216;6.778;2023-04-25T05:57:32;7.80;99.90
13754;DHT22;6948;51.216;6.778;2023-04-25T05:59:57;7.90;99.90
13754;DHT22;6948;51.216;6.778;2023-04-25T06:02:23;7.90;99.90
13754;DHT22;6948;51.216;6.778;2023-04-25T06:04:50;8.00;99.90
13754;DHT22;6948;51.216;6.778;2023-04-25T06:07:17;8.20;99.90
13754;DHT22;6948;51.216;6.778;2023-04-25T06:09:43;8.40;99.90
13754;DHT22;6948;51.216;6.778;2023-04-25T06:12:09;8.50;99.90
13754;DHT22;6948;51.216;6.778;2023-04-25T06:14:35;8.40;99.90
13754;DHT22;6948;51.216;6.778;2023-04-25T06:17:01;8.30;99.90
13754;DHT22;6948;51.216;6.778;2023-04-25T06:19:32;8.50;99.90
13754;DHT22;6948;51.216;6.778;2023-04-25T06:21:58;8.50;99.90
13754;DHT22;6948;51.216;6.778;2023-04-25T06:24:23;8.30;99.90
13754;DHT22;6948;51.216;6.778;2023-04-25T06:26:49;8.30;99.90
13754;DHT22;6948;51.216;6.778;2023-04-25T06:29:15;8.40;99.90
13754;DHT22;6948;51.216;6.778;2023-04-25T06:31:40;8.40;99.90
13754;DHT22;6948;51.216;6.778;2023-04-25T06:34:06;8.50;99.90
13754;DHT22;6948;51.216;6.778;2023-04-25T06:36:32;8.30;99.90
13754;DHT22;6948;51.216;6.778;2023-04-25T06:38:57;8.40;99.90
13754;DHT22;6948;51.216;6.778;2023-04-25T06:41:23;8.20;99.90
13754;DHT22;6948;51.216;6.778;2023-04-25T06:43:49;8.30;99.90
13754;DHT22;6948;51.216;6.778;2023-04-25T06:46:14;8.20;99.90
13754;DHT22;6948;51.216;6.778;2023-04-25T06:48:40;8.30;99.90
13754;DHT22;6948;51.216;6.778;2023-04-25T06:51:05;8.40;99.90
13754;DHT22;6948;51.216;6.778;2023-04-25T06:53:31;8.50;99.90
13754;DHT22;6948;51.216;6.778;2023-04-25T06:55:57;8.50;99.90
13754;DHT22;6948;51.216;6.778;2023-04-25T06:58:22;8.70;99.90
13754;DHT22;6948;51.216;6.778;2023-04-25T07:00:48;8.80;99.90
13754;DHT22;6948;51.216;6.778;2023-04-25T07:03:13;8.90;99.90
13754;DHT22;6948;51.216;6.778;2023-04-25T07:05:40;8.80;99.90
13754;DHT22;6948;51.216;6.778;2023-04-25T07:08:05;8.60;99.90
13754;DHT22;6948;51.216;6.778;2023-04-25T07:10:31;8.40;99.90
13754;DHT22;6948;51.216;6.778;2023-04-25T07:12:57;8.40;99.90
13754;DHT22;6948;51.216;6.778;2023-04-25T07:15:22;8.40;99.90
13754;DHT22;6948;51.216;6.778;2023-04-25T07:17:48;8.50;99.90
13754;DHT22;6948;51.216;6.778;2023-04-25T07:20:14;8.60;99.90
13754;DHT22;6948;51.216;6.778;2023-04-25T07:22:39;8.50;99.90
13754;DHT22;6948;51.216;6.778;2023-04-25T07:25:06;8.50;99.90
13754;DHT22;6948;51.216;6.778;2023-04-25T07:27:31;8.40;99.90
13754;DHT22;6948;51.216;6.778;2023-04-25T07:29:57;8.40;99.90
13754;DHT22;6948;51.216;6.778;2023-04-25T07:32:23;8.50;99.90
13754;DHT22;6948;51.216;6.778;2023-04-25T07:34:49;8.50;99.90
13754;DHT22;6948;51.216;6.778;2023-04-25T07:37:14;8.50;99.90
13754;DHT22;6948;51.216;6.778;2023-04-25T07:39:40;8.50;99.90
13754;DHT22;6948;51.216;6.778;2023-04-25T07:42:07;8.50;99.90
13754;DHT22;6948;51.216;6.778;2023-04-25T07:44:34;8.60;99.90
13754;DHT22;6948;51.216;6.778;2023-04-25T07:47:05;8.60;99.90
13754;DHT22;6948;51.216;6.778;2023-04-25T07:49:33;8.60;99.90
13754;DHT22;6948;51.216;6.778;2023-04-25T07:52:00;8.60;99.90
13754;DHT22;6948;51.216;6.778;2023-04-25T07:54:26;8.50;99.90
13754;DHT22;6948;51.216;6.778;2023-04-25T07:56:52;8.40;99.90
13754;DHT22;6948;51.216;6.778;2023-04-25T07:59:17;8.40;99.90
13754;DHT22;6948;51.216;6.778;2023-04-25T08:01:43;8.40;99.90
13754;DHT22;6948;51.216;6.778;2023-04-25T08:04:08;8.40;99.90
13754;DHT22;6948;51.216;6.778;2023-04-25T08:06:34;8.40;99.90
13754;DHT22;6948;51.216;6.778;2023-04-25T08:09:01;8.60;99.90
13754;DHT22;6948;51.216;6.778;2023-04-25T08:11:27;8.70;99.90
13754;DHT22;6948;51.216;6.778;2023-04-25T08:13:53;8.80;99.90
13754;DHT22;6948;51.216;6.778;2023-04-25T08:16:18;9.10;99.90
13754;DHT22;6948;51.216;6.778;2023-04-25T08:18:44;9.40;99.90
13754;DHT22;6948;51.216;6.778;2023-04-25T08:21:10;9.60;99.90
13754;DHT22;6948;51.216;6.778;2023-04-25T08:23:37;9.50;99.90
13754;DHT22;6948;51.216;6.778;2023-04-25T08:26:03;9.40;99.90
13754;DHT22;6948;51.216;6.778;2023-04-25T08:28:30;9.30;99.90
13754;DHT22;6948;51.216;6.778;2023-04-25T08:30:55;9.30;99.90
13754;DHT22;6948;51.216;6.778;2023-04-25T08:33:21;9.30;99.90
13754;DHT22;6948;51.216;6.778;2023-04-25T08:35:47;9.40;99.90
13754;DHT22;6948;51.216;6.778;2023-04-25T08:38:12;9.40;99.90
13754;DHT22;6948;51.216;6.778;2023-04-25T08:40:39;9.30;99.90
13754;DHT22;6948;51.216;6.778;2023-04-25T08:43:06;9.40;99.90
13754;DHT22;6948;51.216;6.778;2023-04-25T08:45:39;9.50;99.90
13754;DHT22;6948;51.216;6.778;2023-04-25T08:48:10;9.70;99.90
13754;DHT22;6948;51.216;6.778;2023-04-25T08:50:39;9.60;99.90
13754;DHT22;6948;51.216;6.778;2023-04-25T08:53:08;9.70;99.90
13754;DHT22;6948;51.216;6.778;2023-04-25T08:55:37;9.80;99.90
13754;DHT22;6948;51.216;6.778;2023-04-25T08:58:05;9.80;99.90
13754;DHT22;6948;51.216;6.778;2023-04-25T09:00:31;9.70;99.90
13754;DHT22;6948;51.216;6.778;2023-04-25T09:02:58;9.80;99.90
13754;DHT22;6948;51.216;6.778;2023-04-25T09:05:24;9.90;99.90
13754;DHT22;6948;51.216;6.778;2023-04-25T09:07:50;10.00;99.90
13754;DHT22;6948;51.216;6.778;2023-04-25T09:10:16;10.20;99.90
13754;DHT22;6948;51.216;6.778;2023-04-25T09:12:41;10.40;99.90
13754;DHT22;6948;51.216;6.778;2023-04-25T09:15:10;10.40;99.90
13754;DHT22;6948;51.216;6.778;2023-04-25T09:17:36;10.40;99.90
13754;DHT22;6948;51.216;6.778;2023-04-25T09:20:09;10.40;99.90
13754;DHT22;6948;51.216;6.778;2023-04-25T09:22:36;10.30;99.90
13754;DHT22;6948;51.216;6.778;2023-04-25T09:25:09;10.40;99.90
13754;DHT22;6948;51.216;6.778;2023-04-25T09:27:35;10.20;99.90
13754;DHT22;6948;51.216;6.778;2023-04-25T09:30:01;10.10;99.90
13754;DHT22;6948;51.216;6.778;2023-04-25T09:32:28;9.90;99.90
13754;DHT22;6948;51.216;6.778;2023-04-25T09:34:56;9.90;99.90
13754;DHT22;6948;51.216;6.778;2023-04-25T09:40:00;9.90;99.90
13754;DHT22;6948;51.216;6.778;2023-04-25T09:42:29;10.50;99.90
13754;DHT22;6948;51.216;6.778;2023-04-25T09:44:57;10.70;99.90
13754;DHT22;6948;51.216;6.778;2023-04-25T09:47:25;10.70;99.90
13754;DHT22;6948;51.216;6.778;2023-04-25T09:49:51;10.50;99.90
13754;DHT22;6948;51.216;6.778;2023-04-25T09:52:19;10.50;99.90
13754;DHT22;6948;51.216;6.778;2023-04-25T09:54:46;10.30;99.90
13754;DHT22;6948;51.216;6.778;2023-04-25T09:59:51;10.30;99.90
13754;DHT22;6948;51.216;6.778;2023-04-25T10:02:20;10.40;99.90
13754;DHT22;6948;51.216;6.778;2023-04-25T10:04:51;10.30;99.90
13754;DHT22;6948;51.216;6.778;2023-04-25T10:07:18;10.40;99.90
13754;DHT22;6948;51.216;6.778;2023-04-25T10:09:48;10.30;99.90
13754;DHT22;6948;51.216;6.778;2023-04-25T10:12:15;10.50;99.90
13754;DHT22;6948;51.216;6.778;2023-04-25T10:14:42;10.40;99.90
13754;DHT22;6948;51.216;6.778;2023-04-25T10:17:10;10.40;99.90
13754;DHT22;6948;51.216;6.778;2023-04-25T10:19:37;10.30;99.90
13754;DHT22;6948;51.216;6.778;2023-04-25T10:22:10;10.30;99.90
13754;DHT22;6948;51.216;6.778;2023-04-25T10:24:38;10.40;99.90
13754;DHT22;6948;51.216;6.778;2023-04-25T10:27:04;10.50;99.90
13754;DHT22;6948;51.216;6.778;2023-04-25T10:29:30;10.30;99.90
13754;DHT22;6948;51.216;6.778;2023-04-25T10:31:57;10.10;99.90
13754;DHT22;6948;51.216;6.778;2023-04-25T10:34:41;10.00;99.90
13754;DHT22;6948;51.216;6.778;2023-04-25T10:37:09;10.00;99.90
13754;DHT22;6948;51.216;6.778;2023-04-25T10:39:35;10.00;99.90
13754;DHT22;6948;51.216;6.778;2023-04-25T10:42:03;9.90;99.90
13754;DHT22;6948;51.216;6.778;2023-04-25T10:44:29;10.00;99.90
13754;DHT22;6948;51.216;6.778;2023-04-25T10:46:56;10.10;99.90
13754;DHT22;6948;51.216;6.778;2023-04-25T10:54:55;10.30;99.90
13754;DHT22;6948;51.216;6.778;2023-04-25T11:00:08;10.20;99.90
13754;DHT22;6948;51.216;6.778;2023-04-25T11:05:23;11.00;99.90
13754;DHT22;6948;51.216;6.778;2023-04-25T11:07:53;11.20;99.90
13754;DHT22;6948;51.216;6.778;2023-04-25T11:10:26;11.20;99.90
13754;DHT22;6948;51.216;6.778;2023-04-25T11:12:52;11.30;99.90
13754;DHT22;6948;51.216;6.778;2023-04-25T11:15:18;11.20;99.90
13754;DHT22;6948;51.216;6.778;2023-04-25T11:17:44;11.30;99.90
13754;DHT22;6948;51.216;6.778;2023-04-25T11:20:12;11.50;99.90
13754;DHT22;6948;51.216;6.778;2023-04-25T11:22:40;11.40;99.90
13754;DHT22;6948;51.216;6.778;2023-04-25T11:25:08;11.30;99.90
13754;DHT22;6948;51.216;6.778;2023-04-25T11:27:34;11.30;99.90
13754;DHT22;6948;51.216;6.778;2023-04-25T11:30:11;11.40;99.90
13754;DHT22;6948;51.216;6.778;2023-04-25T11:32:39;11.40;99.90
13754;DHT22;6948;51.216;6.778;2023-04-25T11:35:06;11.40;99.90
13754;DHT22;6948;51.216;6.778;2023-04-25T11:37:32;11.20;99.90
13754;DHT22;6948;51.216;6.778;2023-04-25T11:40:00;11.00;99.90
13754;DHT22;6948;51.216;6.778;2023-04-25T11:42:26;10.90;99.90
13754;DHT22;6948;51.216;6.778;2023-04-25T11:44:52;10.80;99.90
13754;DHT22;6948;51.216;6.778;2023-04-25T11:47:17;10.90;99.90
13754;DHT22;6948;51.216;6.778;2023-04-25T11:49:43;10.90;99.90
13754;DHT22;6948;51.216;6.778;2023-04-25T11:52:09;11.20;99.90
13754;DHT22;6948;51.216;6.778;2023-04-25T11:54:36;11.30;99.90
13754;DHT22;6948;51.216;6.778;2023-04-25T11:57:02;11.30;99.90
13754;DHT22;6948;51.216;6.778;2023-04-25T11:59:28;11.30;99.90
13754;DHT22;6948;51.216;6.778;2023-04-25T12:01:54;11.20;99.90
13754;DHT22;6948;51.216;6.778;2023-04-25T12:04:21;11.20;99.90
13754;DHT22;6948;51.216;6.778;2023-04-25T12:06:49;11.30;99.90
13754;DHT22;6948;51.216;6.778;2023-04-25T12:09:18;11.40;99.90
13754;DHT22;6948;51.216;6.778;2023-04-25T12:11:49;11.40;99.90
13754;DHT22;6948;51.216;6.778;2023-04-25T12:14:23;11.40;99.90
13754;DHT22;6948;51.216;6.778;2023-04-25T12:16:50;11.20;99.90
13754;DHT22;6948;51.216;6.778;2023-04-25T12:19:18;11.00;99.90
13754;DHT22;6948;51.216;6.778;2023-04-25T12:21:44;10.90;99.90
13754;DHT22;6948;51.216;6.778;2023-04-25T12:24:26;10.90;99.90
13754;DHT22;6948;51.216;6.778;2023-04-25T12:29:35;10.60;99.90
13754;DHT22;6948;51.216;6.778;2023-04-25T12:32:01;10.30;1.00
13754;DHT22;6948;51.216;6.778;2023-04-25T12:34:27;10.20;1.00
13754;DHT22;6948;51.216;6.778;2023-04-25T12:36:54;10.20;1.00
13754;DHT22;6948;51.216;6.778;2023-04-25T12:39:21;10.30;1.00
13754;DHT22;6948;51.216;6.778;2023-04-25T12:41:48;10.10;1.00
13754;DHT22;6948;51.216;6.778;2023-04-25T12:44:14;10.00;1.00
13754;DHT22;6948;51.216;6.778;2023-04-25T12:46:40;10.00;1.00
13754;DHT22;6948;51.216;6.778;2023-04-25T12:49:07;10.20;1.00
13754;DHT22;6948;51.216;6.778;2023-04-25T12:51:34;10.30;1.00
13754;DHT22;6948;51.216;6.778;2023-04-25T12:54:01;10.30;1.00
13754;DHT22;6948;51.216;6.778;2023-04-25T12:56:28;10.60;1.00
13754;DHT22;6948;51.216;6.778;2023-04-25T12:58:54;10.70;1.00
13754;DHT22;6948;51.216;6.778;2023-04-25T13:01:21;11.00;1.00
13754;DHT22;6948;51.216;6.778;2023-04-25T13:03:48;11.40;99.90
13754;DHT22;6948;51.216;6.778;2023-04-25T13:06:14;11.50;99.90
13754;DHT22;6948;51.216;6.778;2023-04-25T13:08:41;11.50;99.90
13754;DHT22;6948;51.216;6.778;2023-04-25T13:11:07;11.30;99.90
13754;DHT22;6948;51.216;6.778;2023-04-25T13:13:33;11.30;99.90
13754;DHT22;6948;51.216;6.778;2023-04-25T13:16:01;11.10;99.90
13754;DHT22;6948;51.216;6.778;2023-04-25T13:18:28;11.10;99.90
13754;DHT22;6948;51.216;6.778;2023-04-25T13:20:53;11.10;99.90
13754;DHT22;6948;51.216;6.778;2023-04-25T13:23:19;10.90;99.90
13754;DHT22;6948;51.216;6.778;2023-04-25T13:25:46;10.60;1.00
13754;DHT22;6948;51.216;6.778;2023-04-25T13:28:12;10.30;99.90
13754;DHT22;6948;51.216;6.778;2023-04-25T13:30:38;10.10;1.00
13754;DHT22;6948;51.216;6.778;2023-04-25T13:33:04;10.10;1.00
13754;DHT22;6948;51.216;6.778;2023-04-25T13:35:33;10.20;1.00
13754;DHT22;6948;51.216;6.778;2023-04-25T13:37:59;10.20;1.00
13754;DHT22;6948;51.216;6.778;2023-04-25T13:40:25;10.30;1.00
13754;DHT22;6948;51.216;6.778;2023-04-25T13:42:50;10.50;1.00
13754;DHT22;6948;51.216;6.778;2023-04-25T13:45:16;10.60;1.00
13754;DHT22;6948;51.216;6.778;2023-04-25T13:47:42;10.60;99.90
13754;DHT22;6948;51.216;6.778;2023-04-25T13:50:08;10.70;99.90
13754;DHT22;6948;51.216;6.778;2023-04-25T13:52:35;10.80;99.90
13754;DHT22;6948;51.216;6.778;2023-04-25T13:55:00;10.90;99.90
13754;DHT22;6948;51.216;6.778;2023-04-25T13:57:30;11.00;99.90
13754;DHT22;6948;51.216;6.778;2023-04-25T13:59:55;11.00;99.90
13754;DHT22;6948;51.216;6.778;2023-04-25T14:02:21;11.10;99.90
13754;DHT22;6948;51.216;6.778;2023-04-25T14:04:47;11.10;99.90
13754;DHT22;6948;51.216;6.778;2023-04-25T14:07:14;11.20;99.90
13754;DHT22;6948;51.216;6.778;2023-04-25T14:09:42;11.20;99.90
13754;DHT22;6948;51.216;6.778;2023-04-25T14:12:07;11.10;99.90
13754;DHT22;6948;51.216;6.778;2023-04-25T14:14:33;11.00;99.90
13754;DHT22;6948;51.216;6.778;2023-04-25T14:16:59;10.90;99.90
13754;DHT22;6948;51.216;6.778;2023-04-25T14:19:25;11.00;99.90
13754;DHT22;6948;51.216;6.778;2023-04-25T14:21:50;11.00;99.90
13754;DHT22;6948;51.216;6.778;2023-04-25T14:24:16;11.00;99.90
13754;DHT22;6948;51.216;6.778;2023-04-25T14:26:42;11.00;99.90
13754;DHT22;6948;51.216;6.778;2023-04-25T14:29:09;11.10;1.00
13754;DHT22;6948;51.216;6.778;2023-04-25T14:31:37;11.20;1.00
13754;DHT22;6948;51.216;6.778;2023-04-25T14:34:05;11.10;99.90
13754;DHT22;6948;51.216;6.778;2023-04-25T14:36:31;11.00;99.90
13754;DHT22;6948;51.216;6.778;2023-04-25T14:38:57;10.90;99.90
13754;DHT22;6948;51.216;6.778;2023-04-25T14:41:23;10.90;1.00
13754;DHT22;6948;51.216;6.778;2023-04-25T14:43:49;10.90;1.00
13754;DHT22;6948;51.216;6.778;2023-04-25T14:46:15;10.80;99.90
13754;DHT22;6948;51.216;6.778;2023-04-25T14:48:40;10.60;99.90
13754;DHT22;6948;51.216;6.778;2023-04-25T14:51:06;10.50;1.00
13754;DHT22;6948;51.216;6.778;2023-04-25T14:53:32;10.60;1.00
13754;DHT22;6948;51.216;6.778;2023-04-25T14:55:58;10.80;1.00
13754;DHT22;6948;51.216;6.778;2023-04-25T14:58:23;10.90;1.00
13754;DHT22;6948;51.216;6.778;2023-04-25T15:00:49;11.10;99.90
13754;DHT22;6948;51.216;6.778;2023-04-25T15:03:16;11.20;1.00
13754;DHT22;6948;51.216;6.778;2023-04-25T15:05:43;11.20;99.90
13754;DHT22;6948;51.216;6.778;2023-04-25T15:08:08;11.30;99.90
13754;DHT22;6948;51.216;6.778;2023-04-25T15:10:34;11.30;99.90
13754;DHT22;6948;51.216;6.778;2023-04-25T15:13:00;11.20;99.90
13754;DHT22;6948;51.216;6.778;2023-04-25T15:15:26;11.20;99.90
13754;DHT22;6948;51.216;6.778;2023-04-25T15:17:52;11.30;99.90
13754;DHT22;6948;51.216;6.778;2023-04-25T15:20:20;11.20;99.90
13754;DHT22;6948;51.216;6.778;2023-04-25T15:22:46;11.20;99.90
13754;DHT22;6948;51.216;6.778;2023-04-25T15:25:14;11.20;99.90
13754;DHT22;6948;51.216;6.778;2023-04-25T15:27:43;11.30;99.90
13754;DHT22;6948;51.216;6.778;2023-04-25T15:30:12;11.20;99.90
13754;DHT22;6948;51.216;6.778;2023-04-25T15:32:39;11.10;99.90
13754;DHT22;6948;51.216;6.778;2023-04-25T15:35:05;11.00;99.90
13754;DHT22;6948;51.216;6.778;2023-04-25T15:37:34;11.00;99.90
13754;DHT22;6948;51.216;6.778;2023-04-25T15:40:02;11.10;99.90
13754;DHT22;6948;51.216;6.778;2023-04-25T15:42:35;11.20;99.90
13754;DHT22;6948;51.216;6.778;2023-04-25T15:45:02;11.20;1.00
13754;DHT22;6948;51.216;6.778;2023-04-25T15:47:27;11.20;99.90
13754;DHT22;6948;51.216;6.778;2023-04-25T15:49:53;11.20;1.00
13754;DHT22;6948;51.216;6.778;2023-04-25T15:52:18;11.30;96.30
13754;DHT22;6948;51.216;6.778;2023-04-25T15:54:46;11.10;99.90
13754;DHT22;6948;51.216;6.778;2023-04-25T15:57:12;11.10;99.90
13754;DHT22;6948;51.216;6.778;2023-04-25T15:59:37;10.90;99.90
13754;DHT22;6948;51.216;6.778;2023-04-25T16:02:03;10.90;99.90
13754;DHT22;6948;51.216;6.778;2023-04-25T16:04:29;11.10;99.90
13754;DHT22;6948;51.216;6.778;2023-04-25T16:07:00;11.10;99.90
13754;DHT22;6948;51.216;6.778;2023-04-25T16:09:26;11.30;99.90
13754;DHT22;6948;51.216;6.778;2023-04-25T16:11:51;11.30;99.90